Fort Wainwright, AK

9:25 PM AKDT on May 05, 2015 (GMT -0800)
Ladd Army Air Field | | Change Station
CLOSE
Current Station
Airport
Location: Fairbanks Ft. Wainwright,
Elevation: 453 ft
Nearby Weather Stations

Elev 453 ft 64.84 °N, 147.61 °W | Updated 30 minutes ago

Mostly Cloudy
Mostly Cloudy
54 °F
Feels Like 54 °F
N
10
Wind Variable Wind from SW

Today
High -- | Low -- °F
--% Chance of Precip.
Yesterday
High -- | Low -- °F
Precip. -- in
5:03 AM 10:33 PM
Waning Gibbous, 95% visible
Pressure 30.01 in
Visibility 25.0 miles
Clouds Scattered Clouds 9000 ft
Mostly Cloudy 15000 ft
Dew Point 32 °F
Humidity 44%
Rainfall 0.00 in
Snow Depth Not available.
UV 0 out of 12
Pollen Not available.
Air Quality Not available.
Flu Activity Sporadic
METAR PAFB 060455Z 22009KT 25SM SCT090 BKN150 12/00 A3000 RMK SLP162

More Conditions Fewer Conditions

Pressure 30.01 in
Visibility 25.0 miles
Clouds Scattered Clouds 9000 ft
Mostly Cloudy 15000 ft
Dew Point 32 °F
Humidity 44%
Rainfall 0.00 in
Snow Depth Not available.
UV 0 out of 12
Pollen Not available.
Air Quality Not available.
Flu Activity Sporadic
METAR PAFB 060455Z 22009KT 25SM SCT090 BKN150 12/00 A3000 RMK SLP162

More Conditions Fewer Conditions

10-Day Weather Forecast

Almanac

Astronomy

May. 05, 2015 Rise Set
Actual Time
Civil Twilight
Nautical Twilight
Astronomical Twilight
Moon
Length of Visible Light
Length of Day
Tomorrow will be .
, % of the Moon is Illuminated

Today's Extremes

State Highs State Lows

Community

WunderPhotos

Upload Photos

1,818,839 photos uploaded!

WunderBlogs® & News

Nearby

Air Quality

  Air Quality AQ Index Pollutant
Not available.

Snow Depth

Station Depth Elevation

Earthquake Activity

City Distance Mag. Time & Date
Minimum magnitude displayed is 2.5.

Coastal Water Temperatures

Place Temperature

Stations

Nearby Weather Stations

Station Location Temp. Windchill Dew Point Humidity Wind Precip. Elev Updated Type